createdAt,value
2023-01-03T00:02:02.056Z,13.04
2023-01-03T00:04:34.934Z,12.42
2023-01-03T00:07:07.682Z,12.15
2023-01-03T00:09:40.390Z,11.90
2023-01-03T00:12:13.131Z,11.22
2023-01-03T00:14:46.182Z,10.77
2023-01-03T00:17:18.865Z,10.98
2023-01-03T00:19:51.508Z,11.75
2023-01-03T00:22:24.166Z,12.19
2023-01-03T00:24:56.972Z,12.45
2023-01-03T00:27:29.833Z,12.70
2023-01-03T00:30:02.516Z,12.79
2023-01-03T00:32:35.211Z,12.71
2023-01-03T00:35:08.332Z,12.72
2023-01-03T00:37:40.956Z,12.76
2023-01-03T00:40:13.676Z,12.41
2023-01-03T00:42:46.440Z,12.23
2023-01-03T00:45:20.066Z,11.84
2023-01-03T00:47:53.848Z,12.28
2023-01-03T00:50:26.616Z,12.40
2023-01-03T00:52:59.296Z,12.01
2023-01-03T00:55:35.090Z,12.18
2023-01-03T00:58:07.767Z,12.94
2023-01-03T01:00:40.443Z,12.82
2023-01-03T01:03:13.281Z,12.89
2023-01-03T01:05:46.047Z,13.12
2023-01-03T01:08:18.727Z,13.27
2023-01-03T01:10:51.364Z,12.95
2023-01-03T01:13:23.991Z,13.07
2023-01-03T01:16:08.333Z,13.00
2023-01-03T01:18:43.166Z,13.41
2023-01-03T01:21:20.774Z,13.26
2023-01-03T01:23:53.755Z,12.94
2023-01-03T01:26:27.165Z,12.93
2023-01-03T01:28:59.834Z,12.83
2023-01-03T01:31:33.486Z,13.19
2023-01-03T01:34:06.391Z,13.00
2023-01-03T01:36:40.806Z,13.34
2023-01-03T01:39:18.968Z,13.49
2023-01-03T01:41:59.565Z,13.40
2023-01-03T01:45:01.562Z,13.53
2023-01-03T01:47:52.312Z,13.47
2023-01-03T01:50:30.635Z,13.13
2023-01-03T01:53:12.567Z,13.20
2023-01-03T01:55:57.923Z,12.83
2023-01-03T01:58:38.386Z,12.96
2023-01-03T02:01:14.348Z,12.90
2023-01-03T02:03:55.267Z,13.40
2023-01-03T02:06:31.216Z,13.07
2023-01-03T02:09:04.037Z,12.86
2023-01-03T02:11:51.647Z,12.56
2023-01-03T02:14:43.100Z,12.69
2023-01-03T02:17:42.783Z,12.92
2023-01-03T02:20:20.926Z,12.51
2023-01-03T02:23:18.675Z,13.16
2023-01-03T02:26:20.478Z,13.03
2023-01-03T02:29:11.537Z,12.73
2023-01-03T02:32:04.387Z,12.82
2023-01-03T02:34:49.286Z,12.96
2023-01-03T02:37:44.257Z,13.03
2023-01-03T02:40:39.880Z,13.11
2023-01-03T02:43:33.214Z,12.22
2023-01-03T02:46:25.581Z,11.94
2023-01-03T02:49:08.212Z,11.84
2023-01-03T02:51:40.827Z,12.29
2023-01-03T02:54:24.177Z,12.63
2023-01-03T02:57:07.175Z,12.72
2023-01-03T02:59:42.733Z,12.75
2023-01-03T03:02:19.296Z,12.54
2023-01-03T03:04:57.487Z,12.71
2023-01-03T03:07:36.267Z,12.93
2023-01-03T03:10:11.467Z,12.63
2023-01-03T03:12:48.386Z,12.73
2023-01-03T03:15:29.695Z,13.00
2023-01-03T03:18:11.875Z,13.10
2023-01-03T03:20:44.584Z,12.83
2023-01-03T03:23:24.037Z,13.18
2023-01-03T03:26:30.821Z,12.99
2023-01-03T03:29:12.593Z,13.12
2023-01-03T03:31:52.033Z,13.24
2023-01-03T03:34:31.260Z,12.94
2023-01-03T03:37:18.987Z,13.06
2023-01-03T03:39:51.818Z,13.37
2023-01-03T03:42:51.443Z,12.55
2023-01-03T03:45:49.710Z,12.84
2023-01-03T03:48:25.361Z,12.96
2023-01-03T03:51:15.796Z,12.95
2023-01-03T03:53:51.828Z,13.01
2023-01-03T03:56:30.334Z,12.37
2023-01-03T03:59:08.215Z,12.83
2023-01-03T04:01:43.585Z,12.88
2023-01-03T04:04:27.875Z,12.87
2023-01-03T04:07:00.654Z,12.57
2023-01-03T04:09:33.956Z,12.81
2023-01-03T04:12:06.975Z,12.93
2023-01-03T04:14:40.700Z,12.86
2023-01-03T04:17:13.472Z,12.81
2023-01-03T04:19:46.194Z,12.93
2023-01-03T04:22:18.867Z,12.59
2023-01-03T04:24:51.573Z,12.78
2023-01-03T04:27:24.307Z,12.80
2023-01-03T04:29:57.151Z,13.12
2023-01-03T04:32:30.281Z,12.95
2023-01-03T04:35:03.215Z,12.68
2023-01-03T04:37:36.082Z,12.97
2023-01-03T04:40:09.637Z,12.89
2023-01-03T04:42:42.421Z,13.05
2023-01-03T04:45:15.238Z,12.83
2023-01-03T04:47:48.255Z,12.81
2023-01-03T04:50:20.980Z,12.89
2023-01-03T04:52:53.623Z,12.84
2023-01-03T04:55:26.414Z,12.55
2023-01-03T04:57:59.371Z,12.64
2023-01-03T05:00:32.020Z,12.40
2023-01-03T05:03:04.681Z,12.54
2023-01-03T05:05:39.350Z,12.41
2023-01-03T05:08:12.450Z,12.42
2023-01-03T05:10:45.247Z,12.73
2023-01-03T05:13:17.925Z,12.20
2023-01-03T05:15:50.553Z,12.30
2023-01-03T05:18:23.589Z,11.88
2023-01-03T05:20:56.268Z,12.00
2023-01-03T05:23:29.167Z,12.29
2023-01-03T05:26:10.102Z,12.50
2023-01-03T05:28:47.326Z,12.34
2023-01-03T05:31:20.770Z,12.12
2023-01-03T05:33:54.535Z,12.19
2023-01-03T05:36:27.345Z,12.21
2023-01-03T05:39:00.073Z,12.17
2023-01-03T05:41:32.865Z,12.27
2023-01-03T05:44:06.729Z,12.04
2023-01-03T05:46:39.416Z,12.22
2023-01-03T05:49:12.177Z,11.83
2023-01-03T05:51:45.032Z,11.91
2023-01-03T05:54:19.670Z,12.01
2023-01-03T05:56:52.316Z,11.75
2023-01-03T05:59:25.293Z,12.00
2023-01-03T06:01:57.972Z,11.75
2023-01-03T06:04:30.741Z,11.47
2023-01-03T06:07:03.487Z,11.52
2023-01-03T06:09:36.220Z,11.51
2023-01-03T06:12:08.905Z,11.84
2023-01-03T06:14:41.594Z,11.88
2023-01-03T06:17:14.356Z,11.85
2023-01-03T06:19:47.188Z,11.64
2023-01-03T06:22:19.865Z,11.25
2023-01-03T06:24:52.752Z,10.88
2023-01-03T06:27:25.613Z,11.13
2023-01-03T06:29:58.335Z,10.98
2023-01-03T06:32:31.171Z,11.56
2023-01-03T06:35:04.605Z,11.65
2023-01-03T06:37:37.777Z,11.48
2023-01-03T06:40:11.010Z,11.58
2023-01-03T06:42:44.395Z,11.57
2023-01-03T06:45:17.176Z,11.56
2023-01-03T06:47:49.919Z,11.56
2023-01-03T06:50:23.332Z,11.37
2023-01-03T06:52:56.069Z,11.55
2023-01-03T06:55:29.022Z,11.39
2023-01-03T06:58:01.950Z,11.27
2023-01-03T07:00:38.344Z,11.39
2023-01-03T07:03:11.829Z,11.37
2023-01-03T07:05:45.112Z,11.64
2023-01-03T07:08:18.259Z,11.36
2023-01-03T07:10:51.060Z,11.54
2023-01-03T07:13:24.219Z,11.79
2023-01-03T07:15:57.048Z,11.59
2023-01-03T07:18:30.959Z,11.92
2023-01-03T07:21:07.083Z,11.51
2023-01-03T07:23:40.109Z,11.64
2023-01-03T07:26:12.834Z,11.47
2023-01-03T07:28:46.225Z,11.49
2023-01-03T07:31:19.606Z,11.25
2023-01-03T07:33:53.138Z,11.51
2023-01-03T07:36:26.376Z,11.45
2023-01-03T07:38:59.207Z,10.76
2023-01-03T07:41:31.988Z,11.03
2023-01-03T07:44:04.907Z,10.83
2023-01-03T07:46:37.852Z,10.67
2023-01-03T07:49:12.125Z,10.36
2023-01-03T07:51:45.200Z,10.62
2023-01-03T07:54:17.983Z,10.52
2023-01-03T07:56:50.737Z,11.05
2023-01-03T07:59:23.554Z,10.81
2023-01-03T08:01:56.329Z,10.88
2023-01-03T08:04:29.286Z,10.41
2023-01-03T08:07:02.122Z,10.49
2023-01-03T08:09:35.553Z,10.98
2023-01-03T08:12:10.291Z,11.18
2023-01-03T08:14:43.039Z,10.88
2023-01-03T08:17:15.839Z,10.98
2023-01-03T08:19:48.516Z,11.08
2023-01-03T08:22:23.388Z,10.99
2023-01-03T08:24:56.095Z,11.08
2023-01-03T08:27:29.271Z,11.11
2023-01-03T08:30:02.045Z,11.17
2023-01-03T08:32:35.205Z,11.15
2023-01-03T08:35:10.335Z,10.98
2023-01-03T08:37:46.427Z,11.27
2023-01-03T08:40:19.631Z,11.10
2023-01-03T08:42:52.861Z,11.56
2023-01-03T08:45:27.300Z,11.38
2023-01-03T08:48:02.732Z,11.58
2023-01-03T08:50:35.977Z,11.97
2023-01-03T08:53:08.947Z,11.95
2023-01-03T08:55:42.110Z,12.11
2023-01-03T08:58:15.046Z,11.87
2023-01-03T09:00:47.806Z,11.61
2023-01-03T09:03:20.848Z,11.90
2023-01-03T09:05:53.651Z,11.96
2023-01-03T09:08:26.656Z,12.08
2023-01-03T09:11:03.722Z,12.04
2023-01-03T09:13:37.679Z,12.10
2023-01-03T09:16:13.163Z,12.15
2023-01-03T09:18:45.967Z,12.15
2023-01-03T09:21:18.781Z,12.12
2023-01-03T09:23:51.622Z,12.10
2023-01-03T09:26:24.990Z,12.46
2023-01-03T09:28:57.990Z,12.19
2023-01-03T09:31:30.763Z,12.18
2023-01-03T09:34:03.947Z,12.37
2023-01-03T09:36:36.766Z,12.59
2023-01-03T09:39:09.533Z,12.46
2023-01-03T09:41:44.065Z,12.50
2023-01-03T09:44:17.993Z,12.57
2023-01-03T09:46:50.823Z,12.73
2023-01-03T09:49:23.608Z,12.76
2023-01-03T09:51:56.588Z,12.68
2023-01-03T09:54:33.595Z,12.62
2023-01-03T09:57:28.164Z,12.74
2023-01-03T10:00:01.479Z,12.58
2023-01-03T10:02:53.629Z,12.71
2023-01-03T10:05:41.681Z,12.63
2023-01-03T10:08:28.824Z,12.53
2023-01-03T10:11:12.203Z,12.41
2023-01-03T10:14:05.801Z,12.69
2023-01-03T10:16:49.849Z,12.57
2023-01-03T10:19:31.705Z,12.62
2023-01-03T10:22:35.943Z,12.51
2023-01-03T10:25:29.559Z,12.49
2023-01-03T10:28:22.749Z,12.65
2023-01-03T10:31:10.552Z,12.77
2023-01-03T10:33:46.095Z,12.98
2023-01-03T10:36:21.875Z,13.02
2023-01-03T10:39:11.209Z,12.54
2023-01-03T10:41:46.816Z,12.22
2023-01-03T10:44:24.420Z,12.37
2023-01-03T10:47:19.086Z,12.55
2023-01-03T10:49:58.780Z,12.68
2023-01-03T10:52:39.248Z,12.45
2023-01-03T10:55:16.803Z,12.60
2023-01-03T10:57:52.169Z,12.88
2023-01-03T11:00:28.169Z,12.51
2023-01-03T11:03:24.205Z,12.73
2023-01-03T11:05:59.723Z,12.74
2023-01-03T11:08:44.698Z,12.83
2023-01-03T11:11:34.336Z,13.14
2023-01-03T11:14:09.903Z,13.07
2023-01-03T11:16:42.856Z,13.05
2023-01-03T11:19:17.428Z,13.32
2023-01-03T11:22:14.746Z,13.20
2023-01-03T11:24:50.521Z,13.08
2023-01-03T11:27:57.538Z,12.79
2023-01-03T11:30:47.829Z,13.44
2023-01-03T11:33:47.947Z,13.61
2023-01-03T11:36:48.840Z,13.05
2023-01-03T11:39:31.122Z,13.17
2023-01-03T11:42:12.496Z,13.59
2023-01-03T11:45:00.450Z,13.66
2023-01-03T11:47:54.799Z,13.72
2023-01-03T11:50:39.699Z,13.72
2023-01-03T11:53:15.315Z,13.60
2023-01-03T11:56:03.937Z,13.59
2023-01-03T11:58:49.605Z,13.61
2023-01-03T12:01:40.511Z,13.78
2023-01-03T12:04:25.768Z,13.88
2023-01-03T12:07:47.192Z,14.06
2023-01-03T12:10:27.314Z,13.79
2023-01-03T12:13:29.433Z,13.98
2023-01-03T12:16:21.178Z,14.13
2023-01-03T12:18:58.920Z,14.16
2023-01-03T12:21:36.257Z,14.15
2023-01-03T12:24:29.134Z,13.78
2023-01-03T12:27:30.509Z,13.89
2023-01-03T12:30:30.140Z,14.14
2023-01-03T12:33:16.872Z,13.88
2023-01-03T12:36:22.300Z,14.02
2023-01-03T12:39:10.303Z,13.79
2023-01-03T12:41:59.403Z,13.95
2023-01-03T12:44:42.051Z,14.09
2023-01-03T12:47:29.814Z,13.69
2023-01-03T12:50:17.598Z,13.93
2023-01-03T12:53:03.826Z,13.98
2023-01-03T12:56:04.153Z,14.17
2023-01-03T12:58:42.913Z,13.89
2023-01-03T13:01:28.581Z,13.12
2023-01-03T13:04:16.463Z,13.44
2023-01-03T13:07:03.947Z,13.74
2023-01-03T13:09:43.253Z,13.66
2023-01-03T13:12:23.039Z,13.27
2023-01-03T13:15:05.188Z,13.76
2023-01-03T13:17:47.787Z,13.08
2023-01-03T13:20:29.737Z,13.50
2023-01-03T13:23:32.585Z,13.61
2023-01-03T13:26:05.582Z,13.66
2023-01-03T13:28:40.119Z,13.22
2023-01-03T13:31:15.713Z,13.03
2023-01-03T13:33:48.455Z,12.66
2023-01-03T13:36:23.106Z,12.12
2023-01-03T13:38:55.989Z,11.86
2023-01-03T13:41:37.344Z,11.85
2023-01-03T13:44:21.624Z,12.25
2023-01-03T13:46:55.230Z,12.91
2023-01-03T13:49:29.173Z,12.38
2023-01-03T13:52:02.027Z,12.35
2023-01-03T13:54:55.501Z,12.27
2023-01-03T13:57:32.267Z,12.11
2023-01-03T14:00:17.570Z,12.13
2023-01-03T14:02:53.736Z,11.73
2023-01-03T14:06:14.007Z,11.97
2023-01-03T14:09:01.847Z,11.49
2023-01-03T14:11:57.607Z,12.11
2023-01-03T14:14:57.012Z,12.32
2023-01-03T14:17:37.078Z,11.93
2023-01-03T14:20:21.253Z,11.88
2023-01-03T14:23:00.086Z,11.87
2023-01-03T14:25:42.391Z,11.39
2023-01-03T14:28:21.105Z,11.12
2023-01-03T14:31:08.640Z,11.56
2023-01-03T14:33:53.414Z,11.29
2023-01-03T14:36:27.307Z,11.22
2023-01-03T14:39:01.848Z,11.05
2023-01-03T14:41:39.311Z,10.80
2023-01-03T14:44:12.020Z,10.67
2023-01-03T14:46:57.756Z,10.73
2023-01-03T14:49:39.991Z,10.61
2023-01-03T14:52:19.313Z,11.12
2023-01-03T14:55:03.498Z,10.87
2023-01-03T14:57:39.619Z,10.93
2023-01-03T15:00:35.849Z,11.45
2023-01-03T15:03:14.413Z,11.61
2023-01-03T15:05:53.477Z,11.91
2023-01-03T15:08:30.235Z,12.23
2023-01-03T15:11:06.737Z,12.67
2023-01-03T15:13:49.205Z,12.73
2023-01-03T15:16:41.025Z,12.17
2023-01-03T15:19:19.626Z,11.97
2023-01-03T15:22:07.238Z,12.36
2023-01-03T15:24:45.646Z,12.21
2023-01-03T15:27:43.102Z,12.86
2023-01-03T15:30:25.451Z,12.55
2023-01-03T15:33:29.177Z,11.99
2023-01-03T15:36:18.790Z,12.29
2023-01-03T15:38:52.164Z,12.37
2023-01-03T15:41:34.001Z,12.13
2023-01-03T15:44:08.019Z,11.87
2023-01-03T15:46:45.517Z,11.68
2023-01-03T15:49:23.207Z,11.95
2023-01-03T15:51:56.055Z,12.26
2023-01-03T15:54:28.783Z,12.04
2023-01-03T15:57:04.431Z,12.19
2023-01-03T15:59:43.116Z,12.59
2023-01-03T16:02:19.596Z,12.34
2023-01-03T16:04:54.091Z,12.59
2023-01-03T16:07:26.832Z,12.41
2023-01-03T16:09:59.536Z,12.46
2023-01-03T16:12:37.455Z,12.74
2023-01-03T16:15:22.278Z,12.72
2023-01-03T16:17:55.208Z,12.26
2023-01-03T16:20:28.143Z,12.37
2023-01-03T16:23:02.010Z,12.61
2023-01-03T16:25:34.872Z,12.32
2023-01-03T16:28:12.309Z,12.55
2023-01-03T16:30:45.658Z,12.86
2023-01-03T16:33:20.818Z,12.72
2023-01-03T16:35:54.214Z,12.38
2023-01-03T16:38:28.500Z,12.56
2023-01-03T16:41:01.279Z,11.99
2023-01-03T16:43:33.941Z,12.15
2023-01-03T16:46:10.520Z,12.12
2023-01-03T16:48:45.508Z,12.02
2023-01-03T16:51:29.709Z,12.04
2023-01-03T16:54:07.374Z,12.56
2023-01-03T16:56:40.137Z,12.64
2023-01-03T16:59:20.150Z,12.74
2023-01-03T17:01:53.148Z,12.77
2023-01-03T17:04:25.949Z,12.43
2023-01-03T17:06:58.764Z,12.55
2023-01-03T17:09:35.513Z,12.70
2023-01-03T17:12:14.559Z,12.59
2023-01-03T17:14:48.624Z,12.71
2023-01-03T17:17:22.827Z,12.53
2023-01-03T17:20:04.695Z,12.49
2023-01-03T17:22:39.699Z,12.48
2023-01-03T17:25:12.486Z,12.41
2023-01-03T17:27:53.218Z,12.62
2023-01-03T17:30:28.735Z,12.62
2023-01-03T17:33:01.602Z,12.27
2023-01-03T17:35:38.592Z,12.06
2023-01-03T17:38:32.103Z,12.16
2023-01-03T17:41:05.511Z,12.09
2023-01-03T17:43:38.274Z,12.40
2023-01-03T17:46:24.428Z,12.33
2023-01-03T17:48:57.089Z,12.56
2023-01-03T17:51:29.788Z,12.41
2023-01-03T17:54:03.684Z,12.19
2023-01-03T17:56:36.502Z,12.37
2023-01-03T17:59:12.652Z,12.01
2023-01-03T18:01:45.498Z,12.44
2023-01-03T18:04:18.791Z,12.64
2023-01-03T18:06:59.595Z,12.68
2023-01-03T18:09:33.371Z,12.49
2023-01-03T18:12:06.430Z,12.50
2023-01-03T18:14:40.214Z,12.41
2023-01-03T18:17:31.986Z,12.30
2023-01-03T18:20:05.011Z,12.54
2023-01-03T18:22:37.896Z,12.40
2023-01-03T18:25:22.060Z,12.34
2023-01-03T18:28:03.012Z,12.33
2023-01-03T18:30:35.747Z,12.34
2023-01-03T18:33:08.705Z,12.67
2023-01-03T18:35:42.179Z,12.54
2023-01-03T18:38:26.334Z,12.54
2023-01-03T18:41:04.970Z,12.61
2023-01-03T18:43:38.761Z,12.70
2023-01-03T18:46:16.094Z,12.43
2023-01-03T18:48:48.972Z,12.43
2023-01-03T18:51:27.208Z,12.13
2023-01-03T18:54:00.221Z,12.25
2023-01-03T18:56:39.572Z,12.25
2023-01-03T18:59:21.183Z,12.14
2023-01-03T19:01:55.203Z,12.02
2023-01-03T19:04:28.072Z,12.35
2023-01-03T19:07:01.761Z,12.14
2023-01-03T19:09:34.711Z,12.01
2023-01-03T19:12:16.875Z,11.43
2023-01-03T19:14:49.547Z,11.96
2023-01-03T19:17:22.239Z,11.87
2023-01-03T19:19:54.986Z,12.03
2023-01-03T19:22:31.348Z,12.35
2023-01-03T19:25:08.600Z,12.09
2023-01-03T19:27:46.845Z,11.90
2023-01-03T19:30:49.355Z,11.99
2023-01-03T19:33:22.356Z,11.95
2023-01-03T19:35:55.109Z,12.38
2023-01-03T19:38:28.017Z,12.51
2023-01-03T19:41:00.849Z,12.43
2023-01-03T19:43:33.759Z,12.06
2023-01-03T19:46:16.959Z,12.31
2023-01-03T19:48:49.886Z,12.15
2023-01-03T19:51:22.540Z,12.21
2023-01-03T19:53:55.228Z,12.11
2023-01-03T19:56:27.890Z,12.17
2023-01-03T19:59:03.312Z,11.83
2023-01-03T20:02:14.139Z,12.00
2023-01-03T20:04:31.850Z,12.12
2023-01-03T20:07:13.960Z,11.76
2023-01-03T20:09:46.725Z,12.27
2023-01-03T20:12:25.711Z,12.12
2023-01-03T20:15:04.622Z,11.77
2023-01-03T20:17:39.851Z,12.12
2023-01-03T20:20:13.324Z,12.07
2023-01-03T20:23:05.678Z,11.90
2023-01-03T20:25:39.474Z,11.83
2023-01-03T20:28:21.474Z,11.38
2023-01-03T20:30:54.137Z,12.08
2023-01-03T20:33:28.508Z,11.68
2023-01-03T20:36:22.024Z,11.85
2023-01-03T20:38:56.228Z,11.89
2023-01-03T20:41:29.150Z,12.12
2023-01-03T20:44:03.512Z,11.87
2023-01-03T20:46:36.682Z,12.06
2023-01-03T20:49:36.344Z,12.26
2023-01-03T20:52:16.151Z,12.05
2023-01-03T20:54:49.022Z,11.91
2023-01-03T20:57:21.775Z,12.03
2023-01-03T20:59:54.444Z,11.98
2023-01-03T21:02:27.432Z,11.60
2023-01-03T21:05:00.199Z,11.61
2023-01-03T21:07:32.978Z,11.98
2023-01-03T21:10:06.164Z,11.95
2023-01-03T21:12:38.879Z,11.75
2023-01-03T21:15:11.612Z,12.02
2023-01-03T21:17:50.382Z,11.93
2023-01-03T21:20:26.194Z,12.16
2023-01-03T21:22:59.726Z,11.98
2023-01-03T21:25:35.935Z,11.80
2023-01-03T21:28:10.390Z,12.21
2023-01-03T21:30:43.347Z,12.03
2023-01-03T21:33:19.314Z,11.74
2023-01-03T21:35:52.196Z,12.09
2023-01-03T21:38:25.111Z,12.10
2023-01-03T21:40:58.571Z,12.22
2023-01-03T21:43:31.437Z,12.10
2023-01-03T21:46:06.842Z,12.08
2023-01-03T21:48:39.693Z,11.74
2023-01-03T21:51:14.459Z,11.91
2023-01-03T21:53:47.199Z,11.67
2023-01-03T21:56:22.768Z,11.81
2023-01-03T21:58:55.456Z,12.14
2023-01-03T22:01:28.270Z,12.13
2023-01-03T22:04:01.146Z,12.07
2023-01-03T22:06:34.940Z,12.23
2023-01-03T22:09:07.783Z,12.33
2023-01-03T22:11:40.483Z,12.21
2023-01-03T22:14:13.211Z,12.00
2023-01-03T22:16:45.985Z,11.89
2023-01-03T22:19:18.688Z,11.89
2023-01-03T22:21:51.509Z,11.79
2023-01-03T22:24:24.147Z,12.05
2023-01-03T22:26:57.004Z,12.41
2023-01-03T22:29:29.780Z,12.44
2023-01-03T22:32:02.567Z,12.05
2023-01-03T22:34:37.308Z,12.36
2023-01-03T22:37:10.143Z,12.43
2023-01-03T22:39:42.882Z,12.06
2023-01-03T22:42:19.495Z,12.18
2023-01-03T22:44:52.710Z,12.34
2023-01-03T22:47:25.466Z,12.20
2023-01-03T22:49:58.215Z,12.37
2023-01-03T22:52:30.871Z,12.44
2023-01-03T22:55:03.984Z,12.25
2023-01-03T22:57:36.868Z,12.24
2023-01-03T23:00:11.001Z,12.20
2023-01-03T23:02:44.170Z,12.37
2023-01-03T23:05:17.042Z,12.14
2023-01-03T23:07:49.988Z,12.27
2023-01-03T23:10:22.741Z,12.36
2023-01-03T23:12:55.618Z,12.12
2023-01-03T23:15:31.466Z,12.13
2023-01-03T23:18:04.288Z,12.16
2023-01-03T23:20:36.998Z,12.39
2023-01-03T23:23:10.094Z,12.43
2023-01-03T23:25:42.767Z,12.51
2023-01-03T23:28:15.619Z,12.27
2023-01-03T23:30:48.349Z,11.71
2023-01-03T23:33:21.505Z,11.56
2023-01-03T23:35:54.189Z,11.80
2023-01-03T23:38:28.068Z,11.35
2023-01-03T23:41:07.545Z,11.53
2023-01-03T23:43:40.576Z,11.25
2023-01-03T23:46:19.150Z,10.87
2023-01-03T23:48:56.810Z,11.22
2023-01-03T23:51:30.130Z,11.36
2023-01-03T23:54:02.883Z,11.77
2023-01-03T23:56:35.632Z,11.72
2023-01-03T23:59:08.311Z,12.07
